NCAR-RAP Real-Time Weather Data

Output produced by METARs form (10 April 2020  05:50 UTC)
found at http://weather.rap.ucar.edu/surface/
 
KBGM 100500Z AUTO 28008KT 10SM FEW003 BKN017 OVC050 M01/M02 A2931 RMK AO2 T10061017